Rushford, New York
Current Conditions -  °F | °C
As of 7:35 AM on Thursday 18 Dec 2014 (Local Time) from KOLE Reporting Station
Overcast Overcast  
Wind Chill: 18°   Ceiling: 700
Heat Index: 25°   Visibility: 10mi
Dew Point: 25°   Wind: 6mph
Humidity: 100%   Direction: 270°W
Pressure: 30.01"   Gusts: 16mph
Location:  42.39°N, 78.25°W
Report Text: KOLE 181235Z AUTO 27005G14KT 10SM OVC007 M04/M04 A3001 RMK AO2
Loading
Personal Weather Stations






























Interactive Weather Map New forecast layout! Learn more

10-Day Weather Forecast

Advertisements
Track Severe Weather on mobile